Latest Coastal Weather Observations for Geelong Racecourse

IDV60701

Issued at 3:11 pm EDT Monday 8 February 2016 (issued every 10 minutes, with the page automatically refreshed every 10 minutes)

About coastal observations | Map of coastal stations | Coastal observations for VIC | Marine services | Other Formats
Station Details ID: 087184 Name: GEELONG RACECOURSE Lat: -38.17 Lon: 144.38 Height: 12.9 m
Data from the previous 72 hours. | See also: Recent months at Geelong Racecourse
Date/Time
EDT
Temp

°C
Wind Pressure Rain
since 9am
mm
Weather Cloud Vis
km
Sea
Height
m
Swell
Dir
 
Speed
knots
Gust
knots
hPa Trend Height
m
Period
s
Dir
08/03:00pm 22.0 S 12 18 1022.5 - 0.0 - - - - - - -
08/02:30pm 21.4 SSE 12 17 1022.6 - 0.0 - - - - - - -
08/02:00pm 22.2 SSE 12 17 1022.6 - 0.0 - - - - - - -
08/01:30pm 21.7 S 11 19 1022.7 - 0.0 - - - - - - -
08/01:00pm 22.0 S 10 15 1022.7 - 0.0 - - - - - - -
08/12:30pm 21.9 S 11 17 1022.8 - 0.0 - - - - - - -
08/12:00pm 21.6 S 11 17 1023.0 - 0.0 - - - - - - -
08/11:30am 21.1 S 9 15 1023.0 - 0.0 - - - - - - -
08/11:00am 21.8 S 11 16 1023.0 - 0.0 - - - - - - -
08/10:30am 20.2 SSW 9 13 1022.9 - 0.0 - - - - - - -
08/10:00am 20.3 SSW 8 11 1022.8 - 0.0 - - - - - - -
08/09:30am 19.8 S 8 12 1022.7 - 0.0 - - - - - - -
08/09:00am 19.6 SSW 6 8 1022.5 - 0.0 - - - - - - -
08/08:30am 19.6 SSW 7 9 1022.2 - 0.0 - - - - - - -
08/08:00am 18.3 WSW 3 4 1021.9 - 0.0 - - - - - - -
08/07:30am 17.2 WSW 2 4 1021.7 - 0.0 - - - - - - -
08/07:00am 16.8 WSW 3 4 1021.4 - 0.0 - - - - - - -
08/06:30am 17.1 WSW 3 4 1021.1 - 0.0 - - - - - - -
08/06:00am 17.1 WSW 4 5 1020.8 - 0.0 - - - - - - -
08/05:30am 17.5 WSW 5 6 1020.5 - 0.0 - - - - - - -
08/05:00am 17.0 WSW 4 5 1020.4 - 0.0 - - - - - - -
08/04:30am 18.0 SW 5 7 1020.4 - 0.0 - - - - - - -
08/04:00am 17.4 SSW 3 5 1020.3 - 0.0 - - - - - - -
08/03:30am 17.4 WSW 3 4 1020.3 - 0.0 - - - - - - -
08/03:00am 17.2 WSW 4 6 1020.3 - 0.0 - - - - - - -
08/02:30am 16.9 SW 5 7 1020.5 - 0.0 - - - - - - -
08/02:00am 17.4 SW 5 7 1020.6 - 0.0 - - - - - - -
08/01:30am 17.7 SW 5 7 1020.6 - 0.0 - - - - - - -
08/01:00am 17.9 SSW 7 9 1020.6 - 0.0 - - - - - - -
08/12:30am 18.1 SSW 7 10 1020.3 - 0.0 - - - - - - -
08/12:00am 18.4 SSW 7 10 1020.2 - 0.0 - - - - - - -
 
Date/Time
EDT
Temp

°C
Wind Pressure Rain
since 9am
mm
Weather Cloud Vis
km
Sea
Height
m
Swell
Dir
 
Speed
knots
Gust
knots
hPa Trend Height
m
Period
s
Dir
07/11:30pm 18.5 SSW 8 11 1020.2 - 0.0 - - - - - - -
07/11:00pm 18.6 S 8 10 1020.0 - 0.0 - - - - - - -
07/10:30pm 18.6 S 7 10 1019.9 - 0.0 - - - - - - -
07/10:00pm 18.7 S 7 9 1019.6 - 0.0 - - - - - - -
07/09:30pm 18.9 S 8 11 1019.3 - 0.0 - - - - - - -
07/09:00pm 19.1 S 7 10 1019.0 - 0.0 - - - - - - -
07/08:30pm 19.4 S 10 15 1018.5 - 0.0 - - - - - - -
07/08:00pm 20.0 S 14 18 1018.3 - 0.0 - - - - - - -
07/07:30pm 20.6 S 13 20 1017.8 - 0.0 - - - - - - -
07/07:00pm 21.3 S 14 19 1017.2 - 0.0 - - - - - - -
07/06:30pm 21.6 S 14 20 1016.9 - 0.0 - - - - - - -
07/06:00pm 22.4 S 14 19 1016.8 - 0.0 - - - - - - -
07/05:30pm 22.8 S 15 19 1016.5 - 0.0 - - - - - - -
07/05:00pm 23.5 S 16 22 1016.5 - 0.0 - - - - - - -
07/04:30pm 23.5 S 15 22 1016.2 - 0.0 - - - - - - -
07/04:00pm 23.9 S 16 21 1016.4 - 0.0 - - - - - - -
07/03:30pm 24.5 S 14 18 1016.3 - 0.0 - - - - - - -
07/03:00pm 25.8 S 12 18 1016.3 - 0.0 - - - - - - -
07/02:30pm 25.2 S 12 15 1016.5 - 0.0 - - - - - - -
07/02:00pm 25.5 S 11 16 1016.7 - 0.0 - - - - - - -
07/01:30pm 25.1 SSE 11 14 1016.9 - 0.0 - - - - - - -
07/01:00pm 25.4 SSE 10 14 1017.0 - 0.0 - - - - - - -
07/12:30pm 25.5 SE 7 12 1016.9 - 0.0 - - - - - - -
07/12:00pm 25.1 SSE 6 10 1016.9 - 0.0 - - - - - - -
07/11:30am 24.5 SE 4 7 1017.1 - 0.0 - - - - - - -
07/11:00am 23.5 S 5 8 1017.3 - 0.0 - - - - - - -
07/10:30am 22.9 SSE 6 9 1017.6 - 0.0 - - - - - - -
07/10:00am 22.1 S 7 9 1017.4 - 0.0 - - - - - - -
07/09:30am 20.8 SSW 7 10 1017.2 - 0.0 - - - - - - -
07/09:00am 19.7 SSW 8 10 1017.2 - 0.0 - - - - - - -
07/08:30am 19.1 SSW 8 11 1016.9 - 0.0 - - - - - - -
07/08:00am 17.8 S 2 3 1016.4 - 0.0 - - - - - - -
07/07:30am 16.7 NW 2 3 1015.8 - 0.0 - - - - - - -
07/07:00am 16.4 NNW 2 4 1015.4 - 0.0 - - - - - - -
07/06:30am 16.6 WNW 1 3 1015.0 - 0.0 - - - - - - -
07/06:00am 16.7 W 1 1 1014.7 - 0.0 - - - - - - -
07/05:30am 16.9 W 1 1 1014.5 - 0.0 - - - - - - -
07/05:00am 17.3 W 3 3 1014.5 - 0.0 - - - - - - -
07/04:30am 17.5 WNW 2 3 1014.5 - 0.0 - - - - - - -
07/04:00am 17.6 WNW 1 3 1014.6 - 0.0 - - - - - - -
07/03:30am 18.0 WNW 1 2 1014.6 - 0.0 - - - - - - -
07/03:00am 17.8 W 1 2 1014.7 - 0.0 - - - - - - -
07/02:30am 18.3 W 1 1 1014.7 - 0.0 - - - - - - -
07/02:00am 18.7 W 1 1 1014.8 - 0.0 - - - - - - -
07/01:30am 19.0 W 2 2 1015.0 - 0.0 - - - - - - -
07/01:00am 19.4 SW 2 3 1015.1 - 0.0 - - - - - - -
07/12:30am 19.4 SW 2 2 1015.3 - 0.0 - - - - - - -
07/12:00am 19.9 SW 3 4 1015.3 - 0.0 - - - - - - -
 
Date/Time
EDT
Temp

°C
Wind Pressure Rain
since 9am
mm
Weather Cloud Vis
km
Sea
Height
m
Swell
Dir
 
Speed
knots
Gust
knots
hPa Trend Height
m
Period
s
Dir
06/11:30pm 20.2 SSW 4 5 1015.4 - 0.0 - - - - - - -
06/11:00pm 20.4 SSW 5 6 1015.4 - 0.0 - - - - - - -
06/10:30pm 20.6 SSW 6 8 1015.3 - 0.0 - - - - - - -
06/10:00pm 20.7 SSW 5 6 1015.2 - 0.0 - - - - - - -
06/09:30pm 21.2 S 6 8 1014.9 - 0.0 - - - - - - -
06/09:00pm 21.7 S 8 10 1014.6 - 0.0 - - - - - - -
06/08:30pm 22.4 S 9 13 1014.4 - 0.0 - - - - - - -
06/08:00pm 23.4 S 11 15 1014.1 - 0.0 - - - - - - -
06/07:30pm 24.2 S 11 17 1013.8 - 0.0 - - - - - - -
06/07:00pm 25.0 S 12 16 1013.5 - 0.0 - - - - - - -
06/06:30pm 25.9 S 11 16 1013.4 - 0.0 - - - - - - -
06/06:00pm 27.9 S 12 15 1013.2 - 0.0 - - - - - - -
06/05:30pm 30.6 SE 7 12 1013.0 - 0.0 - - - - - - -
06/05:00pm 30.5 NE 10 15 1012.7 - 0.0 - - - - - - -
06/04:30pm 30.1 ENE 12 17 1012.9 - 0.0 - - - - - - -
06/04:00pm 30.5 ENE 11 16 1013.3 - 0.0 - - - - - - -
06/03:30pm 30.4 ENE 10 13 1013.7 - 0.0 - - - - - - -
06/03:00pm 30.1 NE 9 12 1014.1 - 0.0 - - - - - - -
06/02:30pm 29.6 NE 9 12 1014.4 - 0.0 - - - - - - -
06/02:00pm 29.1 ENE 8 10 1014.8 - 0.0 - - - - - - -
06/01:30pm 28.6 NE 7 9 1015.2 - 0.0 - - - - - - -
06/01:00pm 27.7 NE 7 9 1015.6 - 0.0 - - - - - - -
06/12:30pm 26.2 ENE 6 8 1016.0 - 0.0 - - - - - - -
06/12:00pm 25.1 NE 5 7 1016.6 - 0.0 - - - - - - -
06/11:30am 24.0 NE 4 9 1017.0 - 0.0 - - - - - - -
06/11:00am 23.1 NE 5 7 1017.1 - 0.0 - - - - - - -
06/10:30am 22.3 NE 5 7 1017.3 - 0.0 - - - - - - -
06/10:00am 22.0 NE 4 6 1017.3 - 0.0 - - - - - - -
06/09:30am 21.9 ENE 2 5 1017.3 - 0.0 - - - - - - -
06/09:00am 21.2 E 1 3 1017.4 - 0.0 - - - - - - -
06/08:30am 18.5 SSW 1 1 1017.3 - 0.0 - - - - - - -
06/08:00am 16.9 WSW 2 2 1017.2 - 0.0 - - - - - - -
06/07:30am 15.7 S 1 2 1017.0 - 0.0 - - - - - - -
06/07:00am 14.9 CALM 0 0 1016.6 - 0.0 - - - - - - -
06/06:30am 15.1 SSE 2 3 1016.4 - 0.0 - - - - - - -
06/06:00am 14.9 S 3 4 1016.2 - 0.0 - - - - - - -
06/05:30am 14.8 S 2 3 1016.1 - 0.0 - - - - - - -
06/05:00am 15.3 S 3 3 1016.0 - 0.0 - - - - - - -
06/04:30am 15.5 S 3 3 1016.1 - 0.0 - - - - - - -
06/04:00am 15.8 SSE 3 4 1016.1 - 0.0 - - - - - - -
06/03:30am 16.3 S 4 5 1016.3 - 0.0 - - - - - - -
06/03:00am 16.6 SSE 4 6 1016.6 - 0.0 - - - - - - -
06/02:30am 16.6 SSE 4 7 1016.8 - 0.0 - - - - - - -
06/02:00am 16.3 S 3 5 1017.1 - 0.0 - - - - - - -
06/01:30am 16.5 SSE 3 5 1017.3 - 0.0 - - - - - - -
06/01:00am 17.1 SSE 4 5 1017.6 - 0.0 - - - - - - -
06/12:30am 17.4 SSE 2 3 1018.0 - 0.0 - - - - - - -
06/12:00am 18.2 SE 4 6 1018.0 - 0.0 - - - - - - -
 
Date/Time
EDT
Temp

°C
Wind Pressure Rain
since 9am
mm
Weather Cloud Vis
km
Sea
Height
m
Swell
Dir
 
Speed
knots
Gust
knots
hPa Trend Height
m
Period
s
Dir
05/11:30pm 18.1 SSE 3 3 1018.1 - 0.0 - - - - - - -
05/11:00pm 18.5 SE 3 4 1018.2 - 0.0 - - - - - - -
05/10:30pm 19.1 SE 5 7 1018.3 - 0.0 - - - - - - -
05/10:00pm 19.5 SE 7 11 1018.1 - 0.0 - - - - - - -
05/09:30pm 19.8 SE 8 12 1017.9 - 0.0 - - - - - - -
05/09:00pm 20.1 SE 10 17 1017.8 - 0.0 - - - - - - -
05/08:30pm 20.5 SE 9 14 1017.6 - 0.0 - - - - - - -
05/08:00pm 21.2 SE 11 17 1017.2 - 0.0 - - - - - - -
05/07:30pm 21.8 SE 13 19 1016.8 - 0.0 - - - - - - -
05/07:00pm 22.4 SE 12 18 1016.6 - 0.0 - - - - - - -
05/06:30pm 22.9 SSE 13 19 1016.7 - 0.0 - - - - - - -
05/06:00pm 23.9 SSE 12 18 1016.9 - 0.0 - - - - - - -
05/05:30pm 23.7 SSE 13 19 1017.0 - 0.0 - - - - - - -
05/05:00pm 23.9 SSE 14 21 1017.4 - 0.0 - - - - - - -
05/04:30pm 24.5 SSE 13 18 1017.6 - 0.0 - - - - - - -
05/04:00pm 24.4 SSE 14 19 1017.9 - 0.0 - - - - - - -
05/03:30pm 24.7 SSE 14 21 1018.2 - 0.0 - - - - - - -

Other Formats:

Comma delimited format used in spreadsheet applications
http://www.bom.gov.au/fwo/IDV60701/IDV60701.94857.axf

JavaScript Object Notation format (JSON) in row-major order
http://www.bom.gov.au/fwo/IDV60701/IDV60701.94857.json